Data for 10/17/2018

Time Sea-Level Adjusted Pressure Absolute Pressure Temperature Relative Humidity Dew Point   
(mb) (inHg) (mb) (inHg) (C) (F) (%) (C) (F)
00:05 1030 30.42 859 25.37 3.2 37.7 65 -2.7 27.2
00:10 1030 30.42 859 25.37 3 37.3 66 -2.9 26.9
00:15 1030 30.42 859 25.37 3.1 37.5 65 -2.9 26.7
00:20 1030 30.42 859 25.37 3.2 37.8 63 -3.1 26.5
00:25 1030 30.42 859 25.37 3.5 38.3 63 -3 26.7
00:30 1030 30.42 859 25.37 3.6 38.4 63 -2.8 26.9
00:35 1030 30.42 859 25.37 3.7 38.7 62 -2.9 26.7
00:40 1030 30.42 859 25.37 3.6 38.4 63 -2.9 26.8
00:45 1030 30.42 859 25.37 3.3 37.9 64 -2.8 26.9
00:50 1030 30.42 859 25.37 2.9 37.3 65 -3 26.6
00:55 1030 30.42 859 25.37 2.7 36.8 67 -2.8 26.9
01:00 1030 30.42 859 25.37 2.5 36.5 67 -3.1 26.5
01:05 1030 30.42 859 25.37 2.6 36.7 65 -3.3 26.1
01:10 1030 30.42 859 25.37 2.8 37.1 65 -3.2 26.2
01:15 1030 30.42 859 25.37 3 37.4 64 -3.2 26.3
01:20 1030 30.42 859 25.37 2.8 37.1 65 -3 26.6
01:25 1030 30.42 859 25.37 2.7 36.8 65 -3.3 26.1
01:30 1030 30.42 859 25.37 2.6 36.7 66 -3.1 26.4
01:35 1030 30.42 859 25.37 2.6 36.7 66 -3.1 26.4
01:40 1030 30.42 859 25.37 2.6 36.7 66 -3.2 26.2
01:45 1030 30.42 859 25.37 2.9 37.3 63 -3.3 26
01:50 1030 30.42 859 25.37 3.1 37.6 63 -3.1 26.3
01:55 1030 30.42 859 25.37 3.2 37.7 63 -3.1 26.3
02:00 1030 30.42 859 25.37 3.1 37.6 63 -3.3 26
02:05 1030 30.42 859 25.37 3.4 38.2 63 -2.9 26.8
02:10 1030 30.42 859 25.37 3.4 38 63 -3 26.6
02:15 1030 30.42 859 25.37 3.2 37.8 63 -3.1 26.4
02:20 1030 30.42 859 25.37 3.7 38.7 60 -3.4 25.9
02:25 1030 30.42 859 25.37 3.9 39.1 60 -3.2 26.3
02:30 1030 30.42 859 25.37 3.9 39 60 -3.2 26.2
02:35 1030 30.42 859 25.37 3.9 39.1 60 -3.1 26.4
02:40 1030 30.42 859 25.37 3.3 37.9 63 -3 26.6
02:45 1030 30.42 859 25.37 3.2 37.8 63 -3.2 26.3
02:50 1030 30.42 859 25.37 3.1 37.5 63 -3.3 26.1
02:55 1030 30.42 859 25.37 3.1 37.5 63 -3.3 26.1
03:00 1030 30.42 859 25.37 2.9 37.3 64 -3.2 26.3
03:05 1030 30.42 859 25.37 2.6 36.6 66 -3.2 26.2
03:10 1030 30.42 859 25.37 2.3 36.2 66 -3.4 25.9
03:15 1030 30.42 859 25.37 2.3 36.2 66 -3.4 25.8
03:20 1030 30.42 859 25.37 2.5 36.6 65 -3.4 25.8
03:25 1030 30.42 859 25.37 2.6 36.7 65 -3.3 26.1
03:30 1030 30.42 859 25.37 2.3 36.2 66 -3.4 25.9
03:35 1030 30.42 859 25.37 2 35.6 69 -3.2 26.3
03:40 1030 30.42 859 25.37 2.3 36.1 66 -3.3 26
03:45 1030 30.42 859 25.37 2.5 36.5 66 -3.2 26.3
03:50 1030 30.42 859 25.37 2.3 36.1 66 -3.4 26
03:55 1030 30.42 859 25.37 2.9 37.3 63 -3.4 26
04:00 1030 30.42 859 25.37 2.9 37.2 64 -3.4 26
04:05 1030 30.42 859 25.37 3 37.3 63 -3.3 26
04:10 1030 30.42 859 25.37 3 37.5 63 -3.4 25.9
04:15 1030 30.42 859 25.37 3.1 37.6 63 -3.3 26
04:20 1030 30.42 859 25.37 3.1 37.5 63 -3.3 26.1
04:25 1030 30.42 859 25.37 3.1 37.7 63 -3.3 26.1
04:30 1030 30.42 859 25.37 3.6 38.5 59 -3.7 25.4
04:35 1030 30.42 859 25.37 3.4 38.2 65 -2.4 27.7
04:40 1030 30.42 859 25.37 2.6 36.6 66 -3.1 26.5
04:45 1030 30.42 859 25.37 2.1 35.8 68 -3.1 26.4
04:50 1030 30.42 859 25.37 1.9 35.3 70 -3 26.6
04:55 1030 30.42 859 25.37 1.4 34.5 73 -3 26.6
05:00 1030 30.42 859 25.37 1.4 34.6 72 -3.1 26.4
05:05 1030 30.42 859 25.37 1.9 35.4 69 -3.2 26.3
05:10 1030 30.42 859 25.37 1.9 35.4 71 -2.8 26.9
05:15 1030 30.42 859 25.37 1.5 34.7 70 -3.3 26.1
05:20 1030 30.42 859 25.37 1.5 34.8 70 -3.3 26
05:25 1030 30.42 859 25.37 2.1 35.7 68 -3.3 26
05:30 1030 30.42 859 25.37 2.2 36 67 -3.4 26
05:35 1030 30.42 859 25.37 2.3 36.1 67 -3.3 26.1
05:40 1030 30.42 859 25.37 2.1 35.8 67 -3.3 26
05:45 1030 30.42 859 25.37 1.9 35.4 69 -3.3 26.1
05:50 1030 30.42 859 25.37 1.6 34.9 69 -3.4 25.9
05:55 1030 30.42 859 25.37 1.8 35.2 68 -3.6 25.6
06:00 1030 30.42 859 25.37 1.7 35.1 69 -3.4 26
06:05 1030 30.42 859 25.37 1.6 35 70 -3.3 26.1
06:10 1030 30.42 859 25.37 1.5 34.7 70 -3.4 25.9
06:15 1030 30.42 859 25.37 1.6 34.9 70 -3.2 26.2
06:20 1030 30.42 859 25.37 1.2 34.1 73 -3.2 26.2
06:25 1030 30.42 859 25.37 0.9 33.7 73 -3.4 25.9
06:30 1030 30.42 859 25.37 0.8 33.4 73 -3.4 25.8
06:35 1030 30.42 859 25.37 0.7 33.3 74 -3.4 25.8
06:40 1030 30.42 859 25.37 0.5 32.9 75 -3.5 25.7
06:45 1030 30.42 859 25.37 0.5 32.9 73 -3.7 25.3
06:50 1030 30.42 859 25.37 0.9 33.7 72 -3.5 25.7
06:55 1030 30.42 859 25.37 1 33.9 72 -3.5 25.8
07:00 1030 30.42 859 25.37 0.6 33.1 74 -3.5 25.6
07:05 1030 30.42 859 25.37 0.6 33.1 73 -3.8 25.2
07:10 1030 30.42 859 25.37 0.6 33.1 72 -3.9 24.9
07:15 1030 30.42 859 25.37 1 33.8 70 -3.9 25
07:20 1030 30.42 859 25.37 1.2 34.2 69 -3.8 25.2
07:25 1030 30.42 859 25.37 1.3 34.4 69 -3.7 25.4
07:30 1030 30.42 859 25.37 1.3 34.4 70 -3.6 25.5
07:35 1030 30.42 859 25.37 1.6 34.9 67 -3.8 25.2
07:40 1030 30.42 859 25.37 2.5 36.4 64 -3.7 25.3
07:45 1030 30.42 859 25.37 2.6 36.7 64 -3.5 25.7
07:50 1030 30.42 859 25.37 2.4 36.3 64 -3.7 25.3
07:55 1030 30.42 859 25.37 2.9 37.3 62 -3.6 25.5
08:00 1030 30.42 859 25.37 3.1 37.6 62 -3.4 25.9
08:05 1030 30.42 859 25.37 3.4 38.1 61 -3.5 25.8
08:10 1030 30.42 859 25.37 3.8 38.9 59 -3.5 25.8
08:15 1030 30.42 859 25.37 4 39.1 59 -3.3 26
08:20 1030 30.42 859 25.37 4.1 39.4 58 -3.4 26
08:25 1030 30.42 859 25.37 4.7 40.5 56 -3.3 26
08:30 1030 30.42 859 25.37 5.3 41.5 55 -3.1 26.4
08:35 1030 30.42 859 25.37 5.7 42.3 53 -3 26.5
08:40 1030 30.42 859 25.37 6 42.8 52 -3 26.6
08:45 1030 30.42 859 25.37 6.2 43.1 51 -3.1 26.4
08:50 1030 30.42 859 25.37 6.8 44.3 50 -2.9 26.9
08:55 1030 30.42 859 25.37 7 44.5 50 -2.8 26.9
09:00 1030 30.42 859 25.37 7.2 45 48 -3.1 26.5
09:05 1030 30.42 859 25.37 7.9 46.3 46 -3 26.6
09:10 1030 30.42 859 25.37 7.8 46.1 50 -1.8 28.8
09:15 1030 30.42 859 25.37 7.6 45.7 49 -2.4 27.8
09:20 1030 30.42 859 25.37 7.2 45 49 -2.7 27.1
09:25 1030 30.42 859 25.37 7.4 45.3 49 -2.7 27.2
09:30 1030 30.42 859 25.37 7.6 45.7 49 -2.3 27.8
09:35 1030 30.42 859 25.37 8.1 46.7 47 -2.3 27.8
09:40 1030 30.42 859 25.37 8 46.5 49 -2 28.4
09:45 1030 30.42 859 25.37 8.3 46.9 47 -2.2 28.1
09:50 1030 30.42 859 25.37 8.6 47.5 45 -2.7 27.1
09:55 1030 30.42 859 25.37 9.1 48.3 44 -2.6 27.4
10:00 1029 30.39 859 25.37 9.2 48.5 45 -2 28.5
10:05 1029 30.39 859 25.37 9.4 48.8 43 -2.5 27.6
10:10 1029 30.39 859 25.37 9.2 48.5 44 -2.5 27.5
10:15 1029 30.39 859 25.37 9 48.2 45 -2.1 28.1
10:20 1029 30.39 859 25.37 8.6 47.5 48 -1.7 28.9
10:25 1029 30.39 859 25.37 9 48.1 45 -2.4 27.6
10:30 1029 30.39 858 25.34 9.7 49.4 44 -1.8 28.8
10:35 1029 30.39 858 25.34 10.2 50.4 43 -1.9 28.6
10:40 1029 30.39 858 25.34 10.6 51.1 42 -1.9 28.6
10:45 1029 30.39 858 25.34 10.4 50.8 41 -2.4 27.7
10:50 1029 30.39 858 25.34 10.3 50.6 43 -1.7 28.9
10:55 1029 30.39 858 25.34 9.6 49.3 45 -1.7 28.9
11:00 1029 30.39 858 25.34 10.1 50.3 42 -2.3 27.9
11:05 1029 30.39 858 25.34 10.7 51.2 41 -1.9 28.7
11:10 1029 30.39 858 25.34 10.8 51.4 41 -1.8 28.8
11:15 1029 30.39 858 25.34 11.2 52.1 42 -1.3 29.7
11:20 1029 30.39 858 25.34 10.8 51.5 42 -1.5 29.2
11:25 1029 30.39 858 25.34 10.8 51.4 40 -2.1 28.2
11:30 1029 30.39 858 25.34 10.3 50.6 45 -0.9 30.4
11:35 1029 30.39 858 25.34 11 51.8 41 -1.8 28.8
11:40 1029 30.39 858 25.34 10.8 51.4 42 -1.6 29.1
11:45 1029 30.39 858 25.34 11.8 53.2 38 -1.8 28.7
11:50 1029 30.39 858 25.34 11.7 53.1 40 -1.5 29.3
11:55 1028 30.36 858 25.34 11.2 52.1 41 -1.6 29
12:00 1028 30.36 858 25.34 10.8 51.5 41 -2 28.3
12:05 1028 30.36 857 25.31 11.9 53.4 38 -2.1 28.2
12:10 1028 30.36 857 25.31 11.6 53 40 -1.5 29.2
12:15 1028 30.36 857 25.31 11.7 53.1 42 -0.7 30.7
12:20 1028 30.36 857 25.31 12 53.6 38 -1.7 28.9
12:25 1028 30.36 857 25.31 12.1 53.8 38 -1.6 29.1
12:30 1028 30.36 857 25.31 11.8 53.2 39 -1.6 29.1
12:35 1028 30.36 857 25.31 11.5 52.7 38 -2.3 27.9
12:40 1028 30.36 857 25.31 11.9 53.3 38 -2.1 28.3
12:45 1028 30.36 857 25.31 12.7 54.8 37 -1.7 29
12:50 1028 30.36 857 25.31 13 55.4 37 -1.4 29.6
12:55 1027 30.33 857 25.31 12.6 54.6 37 -1.8 28.7
13:00 1027 30.33 857 25.31 13.1 55.6 36 -1.6 29.1
13:05 1027 30.33 856 25.28 12.8 55 38 -1.2 29.9
13:10 1027 30.33 856 25.28 13.5 56.2 35 -1.6 29.2
13:15 1027 30.33 856 25.28 14.1 57.3 35 -1.2 29.8
13:20 1027 30.33 856 25.28 13.9 57.1 37 -0.4 31.2
13:25 1027 30.33 856 25.28 13.8 56.9 35 -1.1 30
13:30 1027 30.33 856 25.28 14.3 57.7 35 -0.9 30.3
13:35 1027 30.33 856 25.28 14.2 57.6 34 -1.3 29.7
13:40 1027 30.33 856 25.28 14 57.2 36 -0.8 30.6
13:45 1027 30.33 856 25.28 14.2 57.5 34 -1.5 29.3
13:50 1027 30.33 856 25.28 13.8 56.9 36 -1 30.2
13:55 1027 30.33 856 25.28 13.7 56.6 37 -0.7 30.7
14:00 1027 30.33 856 25.28 14.2 57.6 33 -1.7 29
14:05 1027 30.33 856 25.28 14.5 58.1 33 -1.5 29.4
14:10 1027 30.33 856 25.28 14.5 58 33 -1.5 29.3
14:15 1027 30.33 856 25.28 14 57.2 35 -1.3 29.6
14:20 1026 30.3 856 25.28 13.8 56.9 35 -1.4 29.5
14:25 1026 30.3 856 25.28 14.4 58 32 -2.1 28.3
14:30 1026 30.3 856 25.28 14.8 58.6 32 -1.6 29.1
14:35 1026 30.3 856 25.28 15.2 59.4 31 -1.6 29.2
14:40 1026 30.3 856 25.28 15.3 59.5 31 -1.5 29.3
14:45 1026 30.3 855 25.25 14.7 58.4 32 -1.7 28.9
14:50 1026 30.3 855 25.25 14.5 58.1 32 -1.9 28.5
14:55 1026 30.3 855 25.25 14.6 58.3 32 -2 28.4
15:00 1026 30.3 855 25.25 15 59 32 -1.5 29.2
15:05 1026 30.3 855 25.25 14.7 58.4 33 -1.2 29.8
15:10 1026 30.3 855 25.25 14.8 58.6 32 -1.6 29
15:15 1026 30.3 855 25.25 14.9 58.8 33 -1.2 29.8
15:20 1026 30.3 855 25.25 14.9 58.7 33 -1.1 30
15:25 1026 30.3 855 25.25 14.8 58.6 33 -1.4 29.5
15:30 1026 30.3 855 25.25 14.8 58.6 33 -1.4 29.5
15:35 1026 30.3 855 25.25 14.9 58.7 32 -1.5 29.2
15:40 1026 30.3 855 25.25 15 59 32 -1.5 29.2
15:45 1026 30.3 855 25.25 15.3 59.5 32 -1.2 29.8
15:50 1026 30.3 855 25.25 14.8 58.6 33 -1.3 29.6
15:55 1026 30.3 855 25.25 15 58.9 31 -1.8 28.7
16:00 1026 30.3 855 25.25 15.1 59.1 31 -1.8 28.7
16:05 1026 30.3 855 25.25 14.8 58.6 32 -1.7 28.9
16:10 1026 30.3 855 25.25 14.7 58.5 30 -2.5 27.5
16:15 1026 30.3 855 25.25 14.5 58.2 31 -2.2 28.1
16:20 1026 30.3 855 25.25 14.9 58.8 30 -2.4 27.7
16:25 1025 30.27 855 25.25 14.9 58.7 31 -2 28.4
16:30 1025 30.27 855 25.25 14.7 58.4 31 -2.2 28
16:35 1025 30.27 855 25.25 14.6 58.3 31 -2.1 28.3
16:40 1025 30.27 854 25.22 14.8 58.6 32 -1.9 28.7
16:45 1025 30.27 854 25.22 14.9 58.8 31 -2.2 28
16:50 1025 30.27 854 25.22 14.8 58.6 31 -2.1 28.2
16:55 1025 30.27 854 25.22 14.7 58.5 30 -2.4 27.6
17:00 1025 30.27 854 25.22 14.6 58.3 32 -1.9 28.7
17:05 1025 30.27 854 25.22 14.3 57.7 32 -2.2 28
17:10 1025 30.27 854 25.22 13.7 56.7 33 -2.3 27.8
17:15 1025 30.27 854 25.22 13.4 56 33 -2.5 27.5
17:20 1025 30.27 854 25.22 13.3 55.9 33 -2.4 27.6
17:25 1025 30.27 854 25.22 13.2 55.7 34 -2.2 28
17:30 1025 30.27 854 25.22 13 55.4 35 -2.1 28.2
17:35 1025 30.27 854 25.22 12.4 54.3 46 1 33.9
17:40 1025 30.27 854 25.22 10.9 51.5 50 1 33.8
17:45 1025 30.27 854 25.22 10.1 50.3 53 1 33.8
17:50 1025 30.27 854 25.22 9.7 49.4 54 0.9 33.6
17:55 1025 30.27 854 25.22 9.2 48.6 55 0.6 33.1
18:00 1025 30.27 854 25.22 8.8 47.9 56 0.5 32.9
18:05 1025 30.27 854 25.22 8.5 47.3 57 0.5 32.9
18:10 1025 30.27 854 25.22 8.2 46.8 58 0.4 32.8
18:15 1025 30.27 854 25.22 7.9 46.2 59 0.4 32.8
18:20 1025 30.27 854 25.22 7.6 45.6 60 0.4 32.7
18:25 1025 30.27 854 25.22 7.3 45.2 61 0.3 32.6
18:30 1025 30.27 854 25.22 7.3 45.1 61 0.2 32.4
18:35 1025 30.27 854 25.22 7.1 44.8 62 0.3 32.6
18:40 1025 30.27 854 25.22 6.7 44 63 0.1 32.2
18:45 1025 30.27 854 25.22 6.4 43.6 62 -0.4 31.3
18:50 1025 30.27 854 25.22 6.8 44.3 60 -0.5 31.1
18:55 1025 30.27 854 25.22 6.7 44.1 60 -0.4 31.2
19:00 1025 30.27 854 25.22 7 44.6 60 -0.3 31.5
19:05 1025 30.27 854 25.22 6.8 44.2 60 -0.5 31.2
19:10 1025 30.27 854 25.22 7.2 44.9 57 -0.7 30.7
19:15 1025 30.27 854 25.22 7.2 45 58 -0.4 31.3
19:20 1025 30.27 854 25.22 7.1 44.7 58 -0.7 30.8
19:25 1025 30.27 854 25.22 7.2 45 56 -0.9 30.4
19:30 1025 30.27 854 25.22 7.3 45.2 57 -0.7 30.8
19:35 1025 30.27 854 25.22 7 44.7 58 -0.6 31
19:40 1025 30.27 854 25.22 6.7 44.1 59 -0.6 30.8
19:45 1025 30.27 854 25.22 6.8 44.3 58 -0.8 30.6
19:50 1025 30.27 854 25.22 6.8 44.3 59 -0.7 30.8
19:55 1025 30.27 854 25.22 6.7 44 58 -1 30.3
20:00 1025 30.27 854 25.22 6.9 44.3 59 -0.6 30.9
20:05 1025 30.27 854 25.22 6.5 43.8 59 -0.8 30.5
20:10 1025 30.27 854 25.22 6.7 44.1 57 -1.1 30
20:15 1025 30.27 854 25.22 7 44.5 58 -0.6 30.9
20:20 1025 30.27 854 25.22 6.5 43.7 60 -0.6 30.9
20:25 1025 30.27 854 25.22 6.3 43.3 59 -1.1 30.1
20:30 1025 30.27 854 25.22 6.6 43.8 58 -1 30.2
20:35 1025 30.27 854 25.22 6.5 43.6 57 -1.4 29.5
20:40 1025 30.27 854 25.22 6.5 43.7 58 -1.3 29.7
20:45 1025 30.27 854 25.22 6.3 43.4 57 -1.5 29.3
20:50 1025 30.27 854 25.22 6.4 43.6 59 -1 30.3
20:55 1025 30.27 854 25.22 6.1 43 62 -0.6 30.9
21:00 1025 30.27 854 25.22 5.6 42.1 62 -1.1 30
21:05 1025 30.27 854 25.22 5.6 42.1 61 -1.2 29.8
21:10 1025 30.27 854 25.22 5.6 42 60 -1.6 29.1
21:15 1025 30.27 854 25.22 5.6 42.1 59 -1.7 29
21:20 1025 30.27 854 25.22 5.7 42.2 59 -1.7 28.9
21:25 1025 30.27 854 25.22 5.7 42.2 58 -1.8 28.7
21:30 1024 30.24 854 25.22 6.1 43.1 57 -1.8 28.7
21:35 1024 30.24 854 25.22 6.1 42.9 59 -1.4 29.4
21:40 1024 30.24 854 25.22 6.2 43.2 56 -1.8 28.7
21:45 1024 30.24 854 25.22 6.3 43.4 60 -0.9 30.3
21:50 1024 30.24 854 25.22 5.4 41.7 64 -0.9 30.3
21:55 1024 30.24 854 25.22 5 41 65 -1 30.1
22:00 1024 30.24 854 25.22 4.9 40.8 63 -1.6 29.2
22:05 1024 30.24 854 25.22 5.2 41.4 62 -1.4 29.5
22:10 1024 30.24 854 25.22 5.9 42.7 58 -1.8 28.8
22:15 1024 30.24 854 25.22 6.2 43.2 59 -1.2 29.9
22:20 1024 30.24 854 25.22 5.7 42.3 58 -1.8 28.8
22:25 1024 30.24 854 25.22 5.5 41.9 59 -1.8 28.8
22:30 1024 30.24 853 25.19 5.5 41.9 60 -1.6 29.1
22:35 1024 30.24 853 25.19 5.4 41.7 62 -1.4 29.5
22:40 1024 30.24 853 25.19 5.1 41.2 63 -1.3 29.6
22:45 1024 30.24 853 25.19 5 41 61 -2 28.5
22:50 1024 30.24 853 25.19 5.2 41.4 60 -1.9 28.7
22:55 1024 30.24 853 25.19 5.2 41.4 60 -2 28.4
23:00 1024 30.24 853 25.19 5.1 41.2 61 -1.8 28.7
23:05 1024 30.24 853 25.19 5 40.9 61 -1.8 28.7
23:10 1024 30.24 853 25.19 4.8 40.6 63 -1.7 28.9
23:15 1024 30.24 853 25.19 4.3 39.7 64 -1.9 28.6
23:20 1024 30.24 853 25.19 4.2 39.5 64 -1.9 28.6
23:25 1024 30.24 853 25.19 4.2 39.5 65 -1.9 28.6
23:30 1024 30.24 853 25.19 4.2 39.6 64 -1.9 28.5
23:35 1024 30.24 853 25.19 4.5 40.1 63 -2 28.5
23:40 1024 30.24 853 25.19 4.6 40.3 64 -1.6 29.2
23:45 1024 30.24 853 25.19 4.7 40.5 64 -1.5 29.2
23:50 1024 30.24 853 25.19 5 40.9 62 -1.7 29
23:55 1024 30.24 853 25.19 5.1 41.1 61 -1.9 28.6
24:00 1024 30.24 853 25.19 4.9 40.8 62 -1.7 29